Bayfield, CO

7:51 PM MDT on September 21, 2014 (GMT -0600)
MesoWest VALLECITO CO US SNOTEL | Change Station
CLOSE
Current Station
Personal Weather Station
Location: Bayfield, CO
Elevation: 10879 ft
Nearby Weather Stations
Active Advisory: Flash Flood Watch Active Notice: Local Storm Report

Elev 10879 ft 37.49 °N, 107.51 °W | Updated 1 day ago

Thunderstorm
Thunderstorm
63 °F
Feels Like 63 °F
N
8
Wind Variable Wind from South
Gusts 16 mph

Today
High -- | Low -- °F
--% Chance of Precip.
Yesterday
High -- | Low -- °F
Precip. -- in
6:57 AM 7:08 PM
Waning Crescent, 4% visible
Pressure 30.04 in
Visibility 10.0 miles
Clouds Few 5500 ft
Scattered Clouds 7500 ft
Overcast 10000 ft
Dew Point 49 °F
Humidity 59%
Rainfall 0.00 in
Snow Depth 1 in , 0 in , 0 in
UV 0 out of 12
Pollen 6.30 out of 12
Air Quality Not available.
Flu Activity Not available.
METAR KDRO 220053Z AUTO 26006KT 10SM FEW055 SCT075 OVC100 22/09 A3026 RMK AO2 SLP171 T02220089 $

More Conditions Fewer Conditions

Pressure 30.04 in
Visibility 10.0 miles
Clouds Few 5500 ft
Scattered Clouds 7500 ft
Overcast 10000 ft
Dew Point 49 °F
Humidity 59%
Rainfall 0.00 in
Snow Depth 1 in , 0 in , 0 in
UV 0 out of 12
Pollen 6.30 out of 12
Air Quality Not available.
Flu Activity Not available.
METAR KDRO 220053Z AUTO 26006KT 10SM FEW055 SCT075 OVC100 22/09 A3026 RMK AO2 SLP171 T02220089 $

More Conditions Fewer Conditions

10-Day Weather Forecast

Almanac

Astronomy

Sep. 21, 2014 Rise Set
Actual Time 6:57 AM MDT 7:08 PM MDT
Civil Twilight 6:30 AM MDT 7:34 PM MDT
Nautical Twilight 6:00 AM MDT 8:04 PM MDT
Astronomical Twilight 5:29 AM MDT 8:35 PM MDT
Moon 4:35 AM MDT (9/21) 5:44 PM MDT (9/21)
Length of Visible Light 13h 03m
Length of Day
12h 11m
Tomorrow will be 2m 24s shorter.
Waning Crescent, 4% of the Moon is Illuminated
Today
Waning Crescent
Sep 24
New
Oct 1
First Quarter
Oct 8
Full
Oct 15
Last Quarter

Today's Extremes

State Highs State Lows

Community

WunderPhotos

Upload Photos

1,755,347 photos uploaded!

WunderBlogs® & News

Nearby

Snow Depth

Station Depth Elevation
Rough And Tumble 1 in 10360 ft
Buffalo Park 0 in 9240 ft
El Diente Peak 0 in 10200 ft
Mancos 3 in 10000 ft
Bison Lake 0 in 10880 ft

Earthquake Activity

City Distance Mag. Time & Date
No recent earthquake activity has been reported nearby.
Minimum magnitude displayed is 2.5.

Coastal Water Temperatures

Place Temperature
No Stations Reporting

Nearby Weather Stations